Time;durP1;ratioP1;P1;durP2;ratioP2;P2;SDS_P1;SDS_P2;PMS_P1;PMS_P2;Temp;Humidity;BMP_temperature;BMP_pressure;BME280_temperature;BME280_humidity;BME280_pressure;Samples;Min_cycle;Max_cycle;Signal;HPM_P1;HPM_P2
2023/12/31 00:00:14;;;;;;;8.73;4.35;;;;;;;;;;5062721;28;20747;-90
2023/12/31 00:02:40;;;;;;;8.75;4.20;;;;;;;;;;5079941;28;20400;-90
2023/12/31 00:05:09;;;;;;;7.57;3.95;;;;;;;;;;5104043;27;20772;-90
2023/12/31 00:07:35;;;;;;;5.93;3.95;;;;;;;;;;5099635;27;20906;-89
2023/12/31 00:10:01;;;;;;;7.10;3.73;;;;;;;;;;5082386;27;20552;-90
2023/12/31 00:12:28;;;;;;;6.78;3.85;;;;;;;;;;5079289;28;20452;-90
2023/12/31 00:14:54;;;;;;;6.35;3.53;;;;;;;;;;5062641;28;20396;-89
2023/12/31 00:17:20;;;;;;;7.80;3.88;;;;;;;;;;5072958;28;20403;-90
2023/12/31 00:19:46;;;;;;;7.57;3.97;;;;;;;;;;5095784;28;20407;-90
2023/12/31 00:22:12;;;;;;;7.53;3.70;;;;;;;;;;5079010;28;20721;-90
2023/12/31 00:24:38;;;;;;;5.63;3.60;;;;;;;;;;5079270;28;20446;-89
2023/12/31 00:27:04;;;;;;;7.00;3.47;;;;;;;;;;5106784;28;20416;-90
2023/12/31 00:29:30;;;;;;;6.50;3.58;;;;;;;;;;5094353;27;20395;-90
2023/12/31 00:31:56;;;;;;;6.90;3.15;;;;;;;;;;5078450;28;20973;-90
2023/12/31 00:34:22;;;;;;;6.45;3.40;;;;;;;;;;5078520;28;20396;-90
2023/12/31 00:36:49;;;;;;;5.75;2.97;;;;;;;;;;5097129;28;20396;-90
2023/12/31 00:39:16;;;;;;;4.80;2.90;;;;;;;;;;5093138;27;20463;-90
2023/12/31 00:41:42;;;;;;;4.82;2.90;;;;;;;;;;5115376;27;20391;-90
2023/12/31 00:44:08;;;;;;;5.40;3.03;;;;;;;;;;5098102;27;20482;-90
2023/12/31 00:46:34;;;;;;;4.88;2.85;;;;;;;;;;5098256;28;20399;-90
2023/12/31 00:49:00;;;;;;;5.70;2.85;;;;;;;;;;5077769;28;20400;-91
2023/12/31 00:51:26;;;;;;;6.40;3.00;;;;;;;;;;5090076;28;20831;-90
2023/12/31 00:53:52;;;;;;;5.47;2.50;;;;;;;;;;5081444;28;20397;-90
2023/12/31 00:56:18;;;;;;;4.20;2.60;;;;;;;;;;5081044;28;20407;-82
2023/12/31 00:58:44;;;;;;;4.93;2.60;;;;;;;;;;5101282;27;20411;-83
2023/12/31 01:01:10;;;;;;;5.05;2.70;;;;;;;;;;5100176;27;20429;-83
2023/12/31 01:03:36;;;;;;;5.03;2.67;;;;;;;;;;5102666;27;20758;-83
2023/12/31 01:06:06;;;;;;;5.90;2.90;;;;;;;;;;5136714;27;20436;-83
2023/12/31 01:08:32;;;;;;;5.25;2.30;;;;;;;;;;5100584;27;20397;-83
2023/12/31 01:10:58;;;;;;;4.30;2.70;;;;;;;;;;5118140;27;20738;-82
2023/12/31 01:13:25;;;;;;;5.17;2.80;;;;;;;;;;5132928;27;20394;-83
2023/12/31 01:15:51;;;;;;;3.53;2.35;;;;;;;;;;5081985;27;20425;-82
2023/12/31 01:18:17;;;;;;;4.93;2.55;;;;;;;;;;5084851;28;20442;-83
2023/12/31 01:20:43;;;;;;;5.07;2.45;;;;;;;;;;5115703;28;20429;-82
2023/12/31 01:23:09;;;;;;;3.67;2.30;;;;;;;;;;5123596;27;20726;-82
2023/12/31 01:25:35;;;;;;;4.13;2.38;;;;;;;;;;5128349;27;20398;-83
2023/12/31 01:28:01;;;;;;;4.25;2.20;;;;;;;;;;5131125;27;20955;-83
2023/12/31 01:30:27;;;;;;;4.17;2.27;;;;;;;;;;5136113;27;20482;-82
2023/12/31 01:32:53;;;;;;;4.93;2.20;;;;;;;;;;5079011;27;20791;-82
2023/12/31 01:35:19;;;;;;;5.72;2.63;;;;;;;;;;5098630;28;20476;-82
2023/12/31 01:37:46;;;;;;;4.63;2.33;;;;;;;;;;5097172;28;20410;-82
2023/12/31 01:40:12;;;;;;;4.20;2.20;;;;;;;;;;5097560;28;20471;-82
2023/12/31 01:42:38;;;;;;;5.32;2.33;;;;;;;;;;5081249;27;20404;-82
2023/12/31 01:45:05;;;;;;;6.07;2.47;;;;;;;;;;5104481;28;20423;-82
2023/12/31 01:47:35;;;;;;;5.15;2.40;;;;;;;;;;5089539;27;20429;-82
2023/12/31 01:50:03;;;;;;;4.68;2.40;;;;;;;;;;5116789;27;20791;-83
2023/12/31 01:52:30;;;;;;;6.22;3.13;;;;;;;;;;5079940;28;20583;-83
2023/12/31 01:54:57;;;;;;;4.97;2.45;;;;;;;;;;5097191;28;20392;-83
2023/12/31 01:57:24;;;;;;;5.13;2.42;;;;;;;;;;5096685;28;20764;-83
2023/12/31 01:59:52;;;;;;;6.78;3.08;;;;;;;;;;5087201;27;20398;-83
2023/12/31 02:02:18;;;;;;;7.10;3.00;;;;;;;;;;5079796;28;20437;-82
2023/12/31 02:04:45;;;;;;;5.38;2.42;;;;;;;;;;5096090;28;20810;-83
2023/12/31 02:07:11;;;;;;;3.50;2.42;;;;;;;;;;5097946;27;20413;-83
2023/12/31 02:09:37;;;;;;;4.65;2.38;;;;;;;;;;5083431;28;20404;-83
2023/12/31 02:12:03;;;;;;;4.63;2.08;;;;;;;;;;5131561;27;20406;-83
2023/12/31 02:14:29;;;;;;;4.80;2.22;;;;;;;;;;5097918;27;20405;-82
2023/12/31 02:16:55;;;;;;;5.43;2.30;;;;;;;;;;5096766;27;20492;-82
2023/12/31 02:19:21;;;;;;;3.93;2.27;;;;;;;;;;5087258;27;20423;-82
2023/12/31 02:21:47;;;;;;;5.88;2.30;;;;;;;;;;5116306;27;20407;-83
2023/12/31 02:24:14;;;;;;;4.50;2.33;;;;;;;;;;5089169;27;20400;-82
2023/12/31 02:26:41;;;;;;;3.77;2.20;;;;;;;;;;5093259;27;20414;-83
2023/12/31 02:29:07;;;;;;;5.80;2.13;;;;;;;;;;5089769;27;20465;-83
2023/12/31 02:31:34;;;;;;;4.30;2.20;;;;;;;;;;5096077;28;20416;-82
2023/12/31 02:34:01;;;;;;;3.63;1.95;;;;;;;;;;5085572;27;20445;-82
2023/12/31 02:36:27;;;;;;;4.30;1.92;;;;;;;;;;5086997;28;20553;-82
2023/12/31 02:38:53;;;;;;;4.03;2.00;;;;;;;;;;5093638;27;20401;-82
2023/12/31 02:41:19;;;;;;;3.80;2.10;;;;;;;;;;5081862;28;20409;-82
2023/12/31 02:43:46;;;;;;;3.85;2.10;;;;;;;;;;5092238;27;20409;-83
2023/12/31 02:46:12;;;;;;;5.10;2.17;;;;;;;;;;5101043;28;20532;-83
2023/12/31 02:48:38;;;;;;;7.15;2.30;;;;;;;;;;5078694;28;20483;-83
2023/12/31 02:51:04;;;;;;;3.45;1.90;;;;;;;;;;5097362;28;20423;-83
2023/12/31 02:53:30;;;;;;;4.00;1.80;;;;;;;;;;5095392;28;20400;-82
2023/12/31 02:55:56;;;;;;;4.75;2.10;;;;;;;;;;5103679;27;20603;-83
2023/12/31 02:58:22;;;;;;;3.00;1.70;;;;;;;;;;5079635;27;20404;-81
2023/12/31 03:00:48;;;;;;;3.03;1.80;;;;;;;;;;5087814;28;20461;-82
2023/12/31 03:03:14;;;;;;;3.20;1.80;;;;;;;;;;5078332;28;20411;-82
2023/12/31 03:05:40;;;;;;;3.35;1.90;;;;;;;;;;5077518;27;20417;-83
2023/12/31 03:08:06;;;;;;;4.28;1.90;;;;;;;;;;5091911;28;20465;-83
2023/12/31 03:10:32;;;;;;;3.42;1.70;;;;;;;;;;5082965;27;20398;-82
2023/12/31 03:12:59;;;;;;;3.88;2.05;;;;;;;;;;5109708;27;20411;-82
2023/12/31 03:15:25;;;;;;;5.82;2.22;;;;;;;;;;5087293;28;20409;-82
2023/12/31 03:17:51;;;;;;;4.53;1.90;;;;;;;;;;5086429;27;20387;-82
2023/12/31 03:20:17;;;;;;;4.33;2.20;;;;;;;;;;5081636;27;20795;-82
2023/12/31 03:22:45;;;;;;;5.40;2.10;;;;;;;;;;5077437;28;20405;-82
2023/12/31 03:25:12;;;;;;;4.23;2.10;;;;;;;;;;5095044;28;20416;-82
2023/12/31 03:27:38;;;;;;;5.00;2.25;;;;;;;;;;5100320;27;20408;-82
2023/12/31 03:30:05;;;;;;;3.55;2.03;;;;;;;;;;5085318;27;20402;-81
2023/12/31 03:32:31;;;;;;;5.25;2.38;;;;;;;;;;5084539;28;20962;-83
2023/12/31 03:34:58;;;;;;;4.93;2.30;;;;;;;;;;5100390;27;20493;-82
2023/12/31 03:37:24;;;;;;;5.82;2.30;;;;;;;;;;5099350;27;20473;-82
2023/12/31 03:39:51;;;;;;;7.40;2.90;;;;;;;;;;5109939;27;20432;-82
2023/12/31 03:42:18;;;;;;;5.32;3.17;;;;;;;;;;5094566;28;20470;-82
2023/12/31 03:44:44;;;;;;;5.28;2.90;;;;;;;;;;5131108;27;20391;-83
2023/12/31 03:47:10;;;;;;;5.40;2.90;;;;;;;;;;5101689;27;20397;-83
2023/12/31 03:49:36;;;;;;;5.40;2.88;;;;;;;;;;5078701;27;20427;-83
2023/12/31 03:52:03;;;;;;;5.07;3.10;;;;;;;;;;5076407;27;20422;-82
2023/12/31 03:54:29;;;;;;;5.97;3.37;;;;;;;;;;5122102;27;20401;-81
2023/12/31 03:56:55;;;;;;;5.35;3.00;;;;;;;;;;5117699;27;20416;-82
2023/12/31 03:59:21;;;;;;;5.00;3.20;;;;;;;;;;5111905;27;20414;-82
2023/12/31 04:01:47;;;;;;;4.40;3.00;;;;;;;;;;5098156;28;20400;-83
2023/12/31 04:04:14;;;;;;;5.38;3.03;;;;;;;;;;5102055;27;20754;-83
2023/12/31 04:06:42;;;;;;;5.32;2.78;;;;;;;;;;5097414;27;20449;-83
2023/12/31 04:09:09;;;;;;;4.32;2.85;;;;;;;;;;5116158;27;20733;-83
2023/12/31 04:11:35;;;;;;;7.78;2.92;;;;;;;;;;5077122;28;20427;-82
2023/12/31 04:14:01;;;;;;;4.07;2.67;;;;;;;;;;5077006;28;20404;-83
2023/12/31 04:16:27;;;;;;;4.30;2.60;;;;;;;;;;5076669;28;20412;-82
2023/12/31 04:18:53;;;;;;;4.70;2.65;;;;;;;;;;5112759;27;20433;-83
2023/12/31 04:21:19;;;;;;;4.70;2.42;;;;;;;;;;5074524;27;20423;-84
2023/12/31 04:23:45;;;;;;;4.72;2.55;;;;;;;;;;5077104;28;20399;-83
2023/12/31 04:26:11;;;;;;;5.53;2.60;;;;;;;;;;5094053;28;20412;-83
2023/12/31 04:28:37;;;;;;;4.10;2.50;;;;;;;;;;5077033;28;20408;-83
2023/12/31 04:31:03;;;;;;;6.50;2.95;;;;;;;;;;5081394;27;20441;-83
2023/12/31 04:33:30;;;;;;;5.25;2.60;;;;;;;;;;5110459;28;20471;-83
2023/12/31 04:35:56;;;;;;;4.25;2.50;;;;;;;;;;5114237;27;20456;-83
2023/12/31 04:38:22;;;;;;;4.88;2.67;;;;;;;;;;5084542;28;20495;-83
2023/12/31 04:40:48;;;;;;;4.47;2.50;;;;;;;;;;5113078;28;20393;-83
2023/12/31 04:43:14;;;;;;;4.32;2.65;;;;;;;;;;5095072;28;20456;-83
2023/12/31 04:45:40;;;;;;;6.72;2.90;;;;;;;;;;5087168;27;20430;-84
2023/12/31 04:48:06;;;;;;;3.80;2.75;;;;;;;;;;5081563;28;20397;-84
2023/12/31 04:50:32;;;;;;;5.70;3.00;;;;;;;;;;5079448;28;20405;-83
2023/12/31 04:52:58;;;;;;;5.35;2.70;;;;;;;;;;5097609;27;20424;-83
2023/12/31 04:55:24;;;;;;;4.63;2.90;;;;;;;;;;5079495;28;20412;-84
2023/12/31 04:57:50;;;;;;;4.45;2.60;;;;;;;;;;5076966;28;20438;-84
2023/12/31 05:00:18;;;;;;;5.57;2.72;;;;;;;;;;5076519;28;20405;-83
2023/12/31 05:02:44;;;;;;;5.10;2.90;;;;;;;;;;5081575;28;20395;-83
2023/12/31 05:05:10;;;;;;;3.83;2.50;;;;;;;;;;5074192;28;20404;-83
2023/12/31 05:07:36;;;;;;;4.68;2.80;;;;;;;;;;5079681;28;20904;-84
2023/12/31 05:10:03;;;;;;;5.33;2.93;;;;;;;;;;5083812;28;20465;-82
2023/12/31 05:12:29;;;;;;;5.05;3.00;;;;;;;;;;5080912;28;20438;-84
2023/12/31 05:14:55;;;;;;;5.15;2.78;;;;;;;;;;5080353;28;20407;-83
2023/12/31 05:17:21;;;;;;;5.57;2.80;;;;;;;;;;5109207;28;20899;-83
2023/12/31 05:19:47;;;;;;;3.92;2.45;;;;;;;;;;5079202;28;20451;-83
2023/12/31 05:22:13;;;;;;;5.10;2.53;;;;;;;;;;5113495;28;20474;-83
2023/12/31 05:24:40;;;;;;;6.35;2.67;;;;;;;;;;5079520;28;20395;-83
2023/12/31 05:27:06;;;;;;;4.82;2.53;;;;;;;;;;5097015;28;20399;-83
2023/12/31 05:29:32;;;;;;;3.90;2.75;;;;;;;;;;5101067;28;20478;-82
2023/12/31 05:31:58;;;;;;;4.88;2.60;;;;;;;;;;5082893;28;20437;-82
2023/12/31 05:34:24;;;;;;;5.32;2.80;;;;;;;;;;5074079;28;20397;-82
2023/12/31 05:36:50;;;;;;;6.07;2.57;;;;;;;;;;5104781;28;20482;-82
2023/12/31 05:39:16;;;;;;;3.85;2.35;;;;;;;;;;5076923;28;20400;-82
2023/12/31 05:41:42;;;;;;;4.20;2.50;;;;;;;;;;5076056;28;20404;-82
2023/12/31 05:44:08;;;;;;;6.63;2.97;;;;;;;;;;5077090;28;20530;-82
2023/12/31 05:46:34;;;;;;;3.77;2.40;;;;;;;;;;5081949;28;20400;-82
2023/12/31 05:49:00;;;;;;;5.15;2.80;;;;;;;;;;5110527;27;20406;-83
2023/12/31 05:51:26;;;;;;;4.43;2.70;;;;;;;;;;5116676;27;20456;-83
2023/12/31 05:53:52;;;;;;;4.72;2.65;;;;;;;;;;5097023;28;20428;-83
2023/12/31 05:56:18;;;;;;;4.93;2.60;;;;;;;;;;5072478;28;20412;-82
2023/12/31 05:58:46;;;;;;;5.40;2.88;;;;;;;;;;5096839;28;20398;-80
2023/12/31 06:01:13;;;;;;;4.07;2.42;;;;;;;;;;5087577;27;20417;-82
2023/12/31 06:03:39;;;;;;;4.50;2.85;;;;;;;;;;5097315;28;20397;-82
2023/12/31 06:06:05;;;;;;;4.57;2.58;;;;;;;;;;5083146;28;20488;-82
2023/12/31 06:08:31;;;;;;;4.05;2.70;;;;;;;;;;5080239;28;20396;-82
2023/12/31 06:10:57;;;;;;;6.28;2.85;;;;;;;;;;5115708;27;20425;-82
2023/12/31 06:13:23;;;;;;;4.65;2.53;;;;;;;;;;5086621;27;20418;-82
2023/12/31 06:15:49;;;;;;;5.40;2.70;;;;;;;;;;5089661;27;20395;-82
2023/12/31 06:18:15;;;;;;;5.78;2.70;;;;;;;;;;5079478;28;20400;-82
2023/12/31 06:20:41;;;;;;;5.28;3.00;;;;;;;;;;5087019;27;20398;-82
2023/12/31 06:23:08;;;;;;;5.40;2.70;;;;;;;;;;5113543;27;20514;-80
2023/12/31 06:25:34;;;;;;;4.35;2.70;;;;;;;;;;5079448;28;20405;-83
2023/12/31 06:28:00;;;;;;;5.63;3.40;;;;;;;;;;5082957;27;20402;-83
2023/12/31 06:30:26;;;;;;;4.80;2.70;;;;;;;;;;5114983;27;20443;-83
2023/12/31 06:32:52;;;;;;;5.07;3.58;;;;;;;;;;5081824;28;20434;-83
2023/12/31 06:35:18;;;;;;;5.22;3.00;;;;;;;;;;5098121;27;20403;-82
2023/12/31 06:37:44;;;;;;;4.70;3.07;;;;;;;;;;5081651;27;20431;-83
2023/12/31 06:40:11;;;;;;;4.65;2.65;;;;;;;;;;5079130;28;20412;-83
2023/12/31 06:42:37;;;;;;;4.20;2.63;;;;;;;;;;5087647;27;20387;-83
2023/12/31 06:45:04;;;;;;;5.00;3.03;;;;;;;;;;5109213;28;20484;-82
2023/12/31 06:47:31;;;;;;;5.20;2.70;;;;;;;;;;5106510;27;20479;-83
2023/12/31 06:49:57;;;;;;;5.45;3.08;;;;;;;;;;5096525;27;20403;-83
2023/12/31 06:52:23;;;;;;;4.78;3.03;;;;;;;;;;5101976;28;20459;-83
2023/12/31 06:54:49;;;;;;;5.43;3.22;;;;;;;;;;5096005;28;20986;-83
2023/12/31 06:57:15;;;;;;;4.55;2.60;;;;;;;;;;5105134;27;20483;-83
2023/12/31 06:59:41;;;;;;;6.10;3.37;;;;;;;;;;5125814;27;20431;-83
2023/12/31 07:02:08;;;;;;;7.22;3.40;;;;;;;;;;5078736;27;20424;-82
2023/12/31 07:04:34;;;;;;;5.63;2.60;;;;;;;;;;5096140;27;20722;-83
2023/12/31 07:07:00;;;;;;;8.50;5.38;;;;;;;;;;5092315;27;20488;-83
2023/12/31 07:09:28;;;;;;;4.85;2.90;;;;;;;;;;5081064;27;20405;-84
2023/12/31 07:11:55;;;;;;;5.45;3.03;;;;;;;;;;5083242;27;20420;-82
2023/12/31 07:14:23;;;;;;;4.65;2.55;;;;;;;;;;5101331;28;20772;-82
2023/12/31 07:16:49;;;;;;;5.32;3.08;;;;;;;;;;5106998;27;20895;-82
2023/12/31 07:19:16;;;;;;;5.22;3.40;;;;;;;;;;5082687;27;20439;-83
2023/12/31 07:21:42;;;;;;;5.03;3.20;;;;;;;;;;5114036;27;20773;-83
2023/12/31 07:24:08;;;;;;;5.25;2.90;;;;;;;;;;5105404;27;20636;-83
2023/12/31 07:26:35;;;;;;;5.70;3.28;;;;;;;;;;5102542;28;20443;-83
2023/12/31 07:29:01;;;;;;;5.90;3.28;;;;;;;;;;5087725;27;20407;-84
2023/12/31 07:31:27;;;;;;;4.97;2.90;;;;;;;;;;5105187;27;20426;-84
2023/12/31 07:33:54;;;;;;;4.53;2.72;;;;;;;;;;5099185;28;20393;-85
2023/12/31 07:36:20;;;;;;;5.95;3.03;;;;;;;;;;5090578;27;20397;-83
2023/12/31 07:38:46;;;;;;;4.90;2.80;;;;;;;;;;5078165;27;20477;-83
2023/12/31 07:41:12;;;;;;;5.00;2.70;;;;;;;;;;5094553;28;20422;-82
2023/12/31 07:43:40;;;;;;;5.03;2.85;;;;;;;;;;5095721;28;20396;-83
2023/12/31 07:46:06;;;;;;;5.18;2.78;;;;;;;;;;5097126;28;20395;-84
2023/12/31 07:48:32;;;;;;;5.53;2.70;;;;;;;;;;5084229;28;20813;-82
2023/12/31 07:50:59;;;;;;;5.00;2.60;;;;;;;;;;5118079;27;20391;-84
2023/12/31 07:53:25;;;;;;;7.80;2.85;;;;;;;;;;5078956;27;20432;-83
2023/12/31 07:55:51;;;;;;;5.30;2.80;;;;;;;;;;5092382;27;20403;-83
2023/12/31 07:58:17;;;;;;;4.63;2.83;;;;;;;;;;5095174;27;20913;-83
2023/12/31 08:00:43;;;;;;;5.20;2.72;;;;;;;;;;5097645;28;20413;-84
2023/12/31 08:03:09;;;;;;;4.47;2.80;;;;;;;;;;5110128;27;20417;-83
2023/12/31 08:05:35;;;;;;;5.78;2.97;;;;;;;;;;5083730;27;20399;-84
2023/12/31 08:08:02;;;;;;;5.07;3.10;;;;;;;;;;5075652;27;20415;-82
2023/12/31 08:10:28;;;;;;;3.80;2.70;;;;;;;;;;5112637;28;20423;-84
2023/12/31 08:12:54;;;;;;;4.33;2.63;;;;;;;;;;5095981;27;20450;-83
2023/12/31 08:15:20;;;;;;;4.97;3.00;;;;;;;;;;5122043;27;20392;-83
2023/12/31 08:17:46;;;;;;;6.38;3.00;;;;;;;;;;5084940;27;20397;-83
2023/12/31 08:20:12;;;;;;;4.23;2.70;;;;;;;;;;5087450;28;20872;-82
2023/12/31 08:22:38;;;;;;;4.50;3.00;;;;;;;;;;5086846;28;20408;-83
2023/12/31 08:25:04;;;;;;;6.10;3.20;;;;;;;;;;5086278;27;20467;-83
2023/12/31 08:27:30;;;;;;;5.40;3.07;;;;;;;;;;5112430;27;20400;-82
2023/12/31 08:29:57;;;;;;;5.30;3.05;;;;;;;;;;5095235;28;20392;-82
2023/12/31 08:32:28;;;;;;;5.13;2.95;;;;;;;;;;5111791;28;20900;-83
2023/12/31 08:34:54;;;;;;;6.15;3.00;;;;;;;;;;5076736;28;20419;-82
2023/12/31 08:37:20;;;;;;;4.45;3.03;;;;;;;;;;5081631;27;20452;-82
2023/12/31 08:39:46;;;;;;;3.90;2.60;;;;;;;;;;5094518;28;20419;-81
2023/12/31 08:42:12;;;;;;;4.53;2.70;;;;;;;;;;5096128;28;20402;-81
2023/12/31 08:44:39;;;;;;;5.38;2.60;;;;;;;;;;5106061;27;20442;-83
2023/12/31 08:47:05;;;;;;;4.32;2.78;;;;;;;;;;5097192;27;20902;-84
2023/12/31 08:49:31;;;;;;;5.05;2.97;;;;;;;;;;5112798;28;20485;-83
2023/12/31 08:51:57;;;;;;;4.73;2.90;;;;;;;;;;5108983;28;20485;-85
2023/12/31 08:54:24;;;;;;;4.10;2.60;;;;;;;;;;5112229;28;20415;-82
2023/12/31 08:56:50;;;;;;;4.28;2.88;;;;;;;;;;5094625;28;20431;-82
2023/12/31 08:59:18;;;;;;;6.18;2.78;;;;;;;;;;5091065;28;20397;-83
2023/12/31 09:01:44;;;;;;;4.10;2.50;;;;;;;;;;5080294;28;20405;-83
2023/12/31 09:04:11;;;;;;;4.88;2.90;;;;;;;;;;5082686;28;20404;-83
2023/12/31 09:06:38;;;;;;;5.57;2.80;;;;;;;;;;5079821;28;20433;-83
2023/12/31 09:09:07;;;;;;;4.70;2.90;;;;;;;;;;5094932;28;20436;-83
2023/12/31 09:11:33;;;;;;;4.80;3.00;;;;;;;;;;5115321;28;20414;-83
2023/12/31 09:13:59;;;;;;;4.82;3.08;;;;;;;;;;5123785;28;20388;-83
2023/12/31 09:16:26;;;;;;;4.82;3.20;;;;;;;;;;5071582;28;20406;-83
2023/12/31 09:18:52;;;;;;;4.75;3.03;;;;;;;;;;5112837;28;20403;-83
2023/12/31 09:21:18;;;;;;;4.38;2.95;;;;;;;;;;5103789;27;20396;-83
2023/12/31 09:23:44;;;;;;;4.50;2.90;;;;;;;;;;5087763;28;20537;-83
2023/12/31 09:26:10;;;;;;;5.80;2.88;;;;;;;;;;5079319;28;20420;-84
2023/12/31 09:28:39;;;;;;;5.18;3.05;;;;;;;;;;5081705;28;20426;-85
2023/12/31 09:31:05;;;;;;;3.63;2.43;;;;;;;;;;5125201;27;20996;-83
2023/12/31 09:33:31;;;;;;;4.90;3.08;;;;;;;;;;5095908;27;20414;-83
2023/12/31 09:35:57;;;;;;;5.00;3.08;;;;;;;;;;5088832;27;20454;-83
2023/12/31 09:38:23;;;;;;;5.72;2.78;;;;;;;;;;5099413;27;20447;-83
2023/12/31 09:40:51;;;;;;;4.60;3.10;;;;;;;;;;5109034;28;20468;-84
2023/12/31 09:43:20;;;;;;;5.30;3.17;;;;;;;;;;5088976;27;20400;-84
2023/12/31 09:45:48;;;;;;;4.68;2.90;;;;;;;;;;5090395;28;20404;-84
2023/12/31 09:48:15;;;;;;;8.65;5.35;;;;;;;;;;5101214;27;20430;-83
2023/12/31 09:50:42;;;;;;;5.63;3.78;;;;;;;;;;5083586;27;20415;-83
2023/12/31 09:53:10;;;;;;;7.43;3.63;;;;;;;;;;5080732;27;20415;-83
2023/12/31 09:55:37;;;;;;;5.57;3.30;;;;;;;;;;5127741;27;20976;-79
2023/12/31 09:58:03;;;;;;;5.90;3.95;;;;;;;;;;5108430;27;20776;-83
2023/12/31 10:00:30;;;;;;;6.55;3.90;;;;;;;;;;5109688;27;20403;-82
2023/12/31 10:02:56;;;;;;;6.70;4.32;;;;;;;;;;5085728;28;20427;-85
2023/12/31 10:05:22;;;;;;;6.50;4.50;;;;;;;;;;5093614;27;20418;-84
2023/12/31 10:07:48;;;;;;;5.85;4.20;;;;;;;;;;5087761;27;20433;-83
2023/12/31 10:10:15;;;;;;;5.95;4.05;;;;;;;;;;5090874;27;20931;-91
2023/12/31 10:12:42;;;;;;;5.90;4.28;;;;;;;;;;5096891;27;20419;-90
2023/12/31 10:15:08;;;;;;;7.85;5.55;;;;;;;;;;5110376;27;20426;-85
2023/12/31 10:17:37;;;;;;;4.93;3.60;;;;;;;;;;5106019;27;20938;-84
2023/12/31 10:20:04;;;;;;;5.82;3.97;;;;;;;;;;5085271;27;20447;-85
2023/12/31 10:22:31;;;;;;;6.47;4.68;;;;;;;;;;5086657;27;20508;-83
2023/12/31 10:25:17;;;;;;;8.02;5.45;;;;;;;;;;5098473;27;20842;-85
2023/12/31 10:27:46;;;;;;;6.65;4.40;;;;;;;;;;5105604;27;20414;-86
2023/12/31 10:30:12;;;;;;;7.05;4.63;;;;;;;;;;5102823;27;20756;-82
2023/12/31 10:32:39;;;;;;;5.90;4.40;;;;;;;;;;5117495;27;20420;-80
2023/12/31 10:35:06;;;;;;;6.15;4.10;;;;;;;;;;5106224;27;20497;-81
2023/12/31 10:37:34;;;;;;;7.07;4.38;;;;;;;;;;5109834;28;20400;-81
2023/12/31 10:40:15;;;;;;;7.95;4.20;;;;;;;;;;5106525;27;20408;-82
2023/12/31 10:42:42;;;;;;;6.77;4.27;;;;;;;;;;5086407;27;20436;-82
2023/12/31 10:45:09;;;;;;;6.40;3.88;;;;;;;;;;5125702;27;20426;-81
2023/12/31 10:47:35;;;;;;;7.40;4.17;;;;;;;;;;5129210;27;20394;-81
2023/12/31 10:50:01;;;;;;;7.57;3.88;;;;;;;;;;5118656;27;20414;-82
2023/12/31 10:52:28;;;;;;;5.45;4.07;;;;;;;;;;5118434;27;20477;-81
2023/12/31 10:54:55;;;;;;;7.22;4.43;;;;;;;;;;5125822;27;20403;-82
2023/12/31 10:57:21;;;;;;;6.27;4.13;;;;;;;;;;5097306;27;20500;-81
2023/12/31 10:59:48;;;;;;;6.57;3.80;;;;;;;;;;5103323;27;20396;-82
2023/12/31 11:02:16;;;;;;;5.40;3.55;;;;;;;;;;5081306;28;20440;-81
2023/12/31 11:04:44;;;;;;;7.35;3.88;;;;;;;;;;5088794;27;20398;-82
2023/12/31 11:07:11;;;;;;;7.05;4.13;;;;;;;;;;5124630;27;20453;-84
2023/12/31 11:09:37;;;;;;;6.57;4.28;;;;;;;;;;5097337;27;20398;-83
2023/12/31 11:12:03;;;;;;;9.23;4.60;;;;;;;;;;5101130;28;20538;-83
2023/12/31 11:14:32;;;;;;;6.45;4.35;;;;;;;;;;5087085;27;20394;-83
2023/12/31 11:17:25;;;;;;;6.80;4.13;;;;;;;;;;5086188;28;20439;-83
2023/12/31 11:19:54;;;;;;;6.70;3.65;;;;;;;;;;5089636;27;20394;-82
2023/12/31 11:25:00;;;;;;;3.95;2.80;;;;;;;;;;5091932;27;1993919;-82
2023/12/31 11:27:32;;;;;;;5.50;2.70;;;;;;;;;;5146210;27;20414;-83
2023/12/31 11:29:58;;;;;;;3.63;1.73;;;;;;;;;;5134526;27;20879;-82
2023/12/31 11:32:27;;;;;;;3.92;1.92;;;;;;;;;;5150522;27;20410;-82
2023/12/31 11:34:53;;;;;;;4.72;2.17;;;;;;;;;;5132104;27;20423;-84
2023/12/31 11:37:20;;;;;;;2.83;1.70;;;;;;;;;;5133795;27;20456;-84
2023/12/31 11:39:47;;;;;;;4.10;1.30;;;;;;;;;;5133780;27;20407;-82
2023/12/31 11:42:13;;;;;;;1.70;1.00;;;;;;;;;;5150917;27;20411;-82
2023/12/31 11:44:40;;;;;;;2.67;1.20;;;;;;;;;;5125232;27;20453;-82
2023/12/31 11:47:13;;;;;;;1.88;1.08;;;;;;;;;;5134575;27;20465;-82
2023/12/31 11:49:59;;;;;;;1.50;0.80;;;;;;;;;;5131865;27;20392;-82
2023/12/31 11:52:43;;;;;;;2.80;1.00;;;;;;;;;;5105134;27;20396;-85
2023/12/31 11:55:13;;;;;;;3.45;1.10;;;;;;;;;;5136819;27;20397;-82
2023/12/31 11:57:39;;;;;;;2.78;1.00;;;;;;;;;;5127020;27;20396;-83
2023/12/31 12:00:09;;;;;;;2.67;1.20;;;;;;;;;;5132193;27;20392;-84
2023/12/31 12:02:35;;;;;;;2.67;1.45;;;;;;;;;;5150845;27;20436;-83
2023/12/31 12:05:02;;;;;;;2.97;1.30;;;;;;;;;;5149664;27;20403;-84
2023/12/31 12:07:29;;;;;;;2.15;1.00;;;;;;;;;;5130780;27;20413;-84
2023/12/31 12:09:55;;;;;;;1.75;1.05;;;;;;;;;;5150951;27;20392;-84
2023/12/31 12:12:22;;;;;;;3.70;1.50;;;;;;;;;;5136829;27;20392;-84
2023/12/31 12:14:54;;;;;;;2.95;1.60;;;;;;;;;;5113076;27;20409;-86
2023/12/31 12:17:20;;;;;;;3.00;1.55;;;;;;;;;;5112683;27;20406;-85
2023/12/31 12:19:47;;;;;;;4.07;2.25;;;;;;;;;;5120783;27;20485;-84
2023/12/31 12:22:14;;;;;;;3.53;2.20;;;;;;;;;;5149347;27;20390;-84
2023/12/31 12:24:41;;;;;;;3.80;2.20;;;;;;;;;;5123489;27;20426;-83
2023/12/31 12:27:07;;;;;;;2.67;1.50;;;;;;;;;;5131841;27;20402;-84
2023/12/31 12:29:33;;;;;;;3.05;1.45;;;;;;;;;;5129376;27;20418;-85
2023/12/31 12:32:02;;;;;;;2.70;1.50;;;;;;;;;;5098438;27;20396;-84
2023/12/31 12:34:28;;;;;;;5.28;1.30;;;;;;;;;;5107672;27;20416;-85
2023/12/31 12:36:57;;;;;;;3.30;1.70;;;;;;;;;;5095045;27;20789;-85
2023/12/31 12:39:23;;;;;;;3.23;1.50;;;;;;;;;;5106794;27;20438;-85
2023/12/31 12:42:21;;;;;;;2.63;1.30;;;;;;;;;;5108048;27;20447;-85
2023/12/31 12:44:49;;;;;;;3.63;1.35;;;;;;;;;;5079107;27;20947;-85
2023/12/31 12:47:17;;;;;;;2.33;1.35;;;;;;;;;;5113451;27;20539;-84
2023/12/31 12:49:43;;;;;;;3.03;1.75;;;;;;;;;;5097702;28;20916;-84
2023/12/31 12:52:09;;;;;;;3.30;1.60;;;;;;;;;;5115092;27;20395;-85
2023/12/31 12:54:35;;;;;;;3.45;1.67;;;;;;;;;;5116682;27;20414;-84
2023/12/31 12:57:01;;;;;;;3.45;1.75;;;;;;;;;;5115155;27;20442;-84
2023/12/31 12:59:27;;;;;;;3.38;1.65;;;;;;;;;;5114118;27;20742;-84
2023/12/31 13:01:53;;;;;;;2.45;1.70;;;;;;;;;;5081234;27;20786;-84
2023/12/31 13:04:20;;;;;;;6.20;2.88;;;;;;;;;;5086193;28;20515;-83
2023/12/31 13:06:46;;;;;;;4.50;2.45;;;;;;;;;;5090947;28;20412;-85
2023/12/31 13:09:12;;;;;;;4.40;2.50;;;;;;;;;;5095710;27;20398;-84
2023/12/31 13:11:39;;;;;;;3.20;2.05;;;;;;;;;;5107203;27;20448;-84
2023/12/31 13:14:05;;;;;;;4.10;2.10;;;;;;;;;;5093915;27;20432;-85
2023/12/31 13:16:31;;;;;;;4.85;1.80;;;;;;;;;;5086983;27;20517;-81
2023/12/31 13:18:57;;;;;;;4.55;2.22;;;;;;;;;;5111659;27;20843;-85
2023/12/31 13:21:23;;;;;;;4.63;1.70;;;;;;;;;;5080392;27;20512;-84
2023/12/31 13:25:59;;;;;;;5.00;1.67;;;;;;;;;;5156605;27;20927;-83
2023/12/31 13:28:25;;;;;;;5.93;1.38;;;;;;;;;;5109254;27;20783;-84
2023/12/31 13:30:51;;;;;;;4.63;1.70;;;;;;;;;;5125099;27;20418;-84
2023/12/31 13:33:20;;;;;;;4.75;1.58;;;;;;;;;;5117423;28;20958;-84
2023/12/31 13:35:46;;;;;;;10.52;2.67;;;;;;;;;;5139617;27;20449;-83
2023/12/31 13:38:19;;;;;;;7.20;2.03;;;;;;;;;;5123708;27;20393;-84
2023/12/31 13:40:46;;;;;;;11.23;3.60;;;;;;;;;;5112744;28;20859;-83
2023/12/31 13:43:12;;;;;;;7.57;2.50;;;;;;;;;;5134501;27;20431;-84
2023/12/31 13:45:38;;;;;;;7.93;2.42;;;;;;;;;;5116448;27;20922;-84
2023/12/31 13:48:04;;;;;;;8.35;2.85;;;;;;;;;;5110514;27;20450;-85
2023/12/31 13:50:30;;;;;;;8.85;3.03;;;;;;;;;;5114896;27;20398;-85
2023/12/31 13:52:57;;;;;;;8.98;2.50;;;;;;;;;;5109170;27;20492;-84
2023/12/31 13:55:26;;;;;;;5.68;1.70;;;;;;;;;;5121853;27;20521;-85
2023/12/31 13:57:52;;;;;;;7.95;2.38;;;;;;;;;;5121115;27;20966;-85
2023/12/31 14:00:18;;;;;;;6.60;1.60;;;;;;;;;;5124351;27;20417;-84
2023/12/31 14:02:46;;;;;;;8.85;2.78;;;;;;;;;;5123494;27;20880;-85
2023/12/31 14:05:12;;;;;;;7.72;3.05;;;;;;;;;;5136030;27;20914;-85
2023/12/31 14:07:38;;;;;;;7.80;4.20;;;;;;;;;;5117884;27;20392;-84
2023/12/31 14:10:05;;;;;;;8.97;3.20;;;;;;;;;;5127361;27;20390;-85
2023/12/31 14:12:31;;;;;;;5.80;2.30;;;;;;;;;;5109388;27;20417;-84
2023/12/31 14:14:57;;;;;;;4.83;1.70;;;;;;;;;;5119618;28;20983;-84
2023/12/31 14:17:24;;;;;;;7.65;2.45;;;;;;;;;;5105189;28;20451;-85
2023/12/31 14:19:52;;;;;;;7.07;2.25;;;;;;;;;;5105943;28;20458;-84
2023/12/31 14:22:18;;;;;;;6.97;2.35;;;;;;;;;;5088715;28;20923;-84
2023/12/31 14:24:45;;;;;;;6.40;2.63;;;;;;;;;;5091364;28;20430;-83
2023/12/31 14:27:11;;;;;;;7.50;2.83;;;;;;;;;;5119040;28;20488;-85
2023/12/31 14:29:39;;;;;;;5.93;2.45;;;;;;;;;;5086361;28;20470;-85
2023/12/31 14:32:07;;;;;;;6.30;2.80;;;;;;;;;;5118948;28;20415;-84
2023/12/31 14:34:33;;;;;;;6.22;3.25;;;;;;;;;;5104993;28;20453;-84
2023/12/31 14:37:02;;;;;;;6.55;2.60;;;;;;;;;;5088870;28;20523;-85
2023/12/31 14:39:28;;;;;;;6.22;2.83;;;;;;;;;;5090706;28;20511;-85
2023/12/31 14:41:54;;;;;;;7.75;3.38;;;;;;;;;;5096337;28;20404;-82
2023/12/31 14:44:20;;;;;;;9.17;3.60;;;;;;;;;;5084970;28;20468;-83